sensor_id;sensor_type;location;lat;lon;timestamp;P1;durP1;ratioP1;P2;durP2;ratioP2
22963;SDS011;11648;49.306;6.934;2023-08-21T00:01:34;6.37;;;3.07;;
22963;SDS011;11648;49.306;6.934;2023-08-21T00:04:01;4.47;;;2.80;;
22963;SDS011;11648;49.306;6.934;2023-08-21T00:06:28;3.87;;;2.87;;
22963;SDS011;11648;49.306;6.934;2023-08-21T00:08:55;6.27;;;3.10;;
22963;SDS011;11648;49.306;6.934;2023-08-21T00:11:22;4.50;;;3.00;;
22963;SDS011;11648;49.306;6.934;2023-08-21T00:13:48;3.87;;;2.90;;
22963;SDS011;11648;49.306;6.934;2023-08-21T00:16:16;4.30;;;2.90;;
22963;SDS011;11648;49.306;6.934;2023-08-21T00:18:43;4.77;;;3.03;;
22963;SDS011;11648;49.306;6.934;2023-08-21T00:21:10;5.20;;;3.10;;
22963;SDS011;11648;49.306;6.934;2023-08-21T00:23:37;5.63;;;2.80;;
22963;SDS011;11648;49.306;6.934;2023-08-21T00:26:03;6.83;;;2.87;;
22963;SDS011;11648;49.306;6.934;2023-08-21T00:28:30;4.80;;;2.67;;
22963;SDS011;11648;49.306;6.934;2023-08-21T00:31:03;7.57;;;3.00;;
22963;SDS011;11648;49.306;6.934;2023-08-21T00:33:31;7.57;;;3.40;;
22963;SDS011;11648;49.306;6.934;2023-08-21T00:35:59;6.77;;;2.93;;
22963;SDS011;11648;49.306;6.934;2023-08-21T00:38:26;6.10;;;2.97;;
22963;SDS011;11648;49.306;6.934;2023-08-21T00:40:53;5.20;;;3.03;;
22963;SDS011;11648;49.306;6.934;2023-08-21T00:43:20;5.67;;;2.87;;
22963;SDS011;11648;49.306;6.934;2023-08-21T00:45:48;7.60;;;3.20;;
22963;SDS011;11648;49.306;6.934;2023-08-21T00:48:17;6.57;;;3.07;;
22963;SDS011;11648;49.306;6.934;2023-08-21T00:50:45;6.03;;;2.93;;
22963;SDS011;11648;49.306;6.934;2023-08-21T00:53:12;5.80;;;3.00;;
22963;SDS011;11648;49.306;6.934;2023-08-21T00:55:39;4.77;;;3.07;;
22963;SDS011;11648;49.306;6.934;2023-08-21T00:58:08;5.17;;;2.70;;
22963;SDS011;11648;49.306;6.934;2023-08-21T01:00:37;6.63;;;3.13;;
22963;SDS011;11648;49.306;6.934;2023-08-21T01:03:05;6.07;;;2.97;;
22963;SDS011;11648;49.306;6.934;2023-08-21T01:05:33;5.53;;;2.97;;
22963;SDS011;11648;49.306;6.934;2023-08-21T01:08:02;5.80;;;2.90;;
22963;SDS011;11648;49.306;6.934;2023-08-21T01:13:19;5.47;;;3.20;;
22963;SDS011;11648;49.306;6.934;2023-08-21T01:15:53;6.73;;;3.43;;
22963;SDS011;11648;49.306;6.934;2023-08-21T01:18:22;4.30;;;3.30;;
22963;SDS011;11648;49.306;6.934;2023-08-21T01:20:49;5.67;;;3.23;;
22963;SDS011;11648;49.306;6.934;2023-08-21T01:23:30;4.90;;;3.20;;
22963;SDS011;11648;49.306;6.934;2023-08-21T01:25:57;5.13;;;3.10;;
22963;SDS011;11648;49.306;6.934;2023-08-21T01:28:24;4.30;;;2.93;;
22963;SDS011;11648;49.306;6.934;2023-08-21T01:30:51;4.80;;;2.83;;
22963;SDS011;11648;49.306;6.934;2023-08-21T01:33:27;3.77;;;2.90;;
22963;SDS011;11648;49.306;6.934;2023-08-21T01:35:57;4.20;;;3.13;;
22963;SDS011;11648;49.306;6.934;2023-08-21T01:38:26;3.83;;;3.00;;
22963;SDS011;11648;49.306;6.934;2023-08-21T01:40:53;3.93;;;2.97;;
22963;SDS011;11648;49.306;6.934;2023-08-21T01:43:19;4.63;;;2.93;;
22963;SDS011;11648;49.306;6.934;2023-08-21T01:45:46;4.20;;;2.60;;
22963;SDS011;11648;49.306;6.934;2023-08-21T01:48:13;7.00;;;3.10;;
22963;SDS011;11648;49.306;6.934;2023-08-21T01:50:43;4.70;;;2.90;;
22963;SDS011;11648;49.306;6.934;2023-08-21T01:53:10;4.80;;;2.90;;
22963;SDS011;11648;49.306;6.934;2023-08-21T01:55:36;5.90;;;3.10;;
22963;SDS011;11648;49.306;6.934;2023-08-21T01:58:03;5.37;;;2.80;;
22963;SDS011;11648;49.306;6.934;2023-08-21T02:00:30;4.20;;;2.20;;
22963;SDS011;11648;49.306;6.934;2023-08-21T02:02:57;5.23;;;3.17;;
22963;SDS011;11648;49.306;6.934;2023-08-21T02:05:24;5.23;;;3.03;;
22963;SDS011;11648;49.306;6.934;2023-08-21T02:07:50;4.57;;;2.67;;
22963;SDS011;11648;49.306;6.934;2023-08-21T02:10:17;5.90;;;2.83;;
22963;SDS011;11648;49.306;6.934;2023-08-21T02:12:44;4.87;;;3.10;;
22963;SDS011;11648;49.306;6.934;2023-08-21T02:15:11;4.60;;;2.90;;
22963;SDS011;11648;49.306;6.934;2023-08-21T02:17:40;4.87;;;2.90;;
22963;SDS011;11648;49.306;6.934;2023-08-21T02:20:09;7.47;;;3.07;;
22963;SDS011;11648;49.306;6.934;2023-08-21T02:22:37;6.23;;;3.00;;
22963;SDS011;11648;49.306;6.934;2023-08-21T02:25:04;5.70;;;3.13;;
22963;SDS011;11648;49.306;6.934;2023-08-21T02:27:31;6.10;;;3.40;;
22963;SDS011;11648;49.306;6.934;2023-08-21T02:29:58;5.23;;;2.80;;
22963;SDS011;11648;49.306;6.934;2023-08-21T02:32:25;4.40;;;3.30;;
22963;SDS011;11648;49.306;6.934;2023-08-21T02:34:51;4.53;;;3.00;;
22963;SDS011;11648;49.306;6.934;2023-08-21T02:37:18;4.00;;;2.80;;
22963;SDS011;11648;49.306;6.934;2023-08-21T02:39:45;3.50;;;2.80;;
22963;SDS011;11648;49.306;6.934;2023-08-21T02:42:11;4.90;;;2.90;;
22963;SDS011;11648;49.306;6.934;2023-08-21T02:44:38;4.93;;;2.73;;
22963;SDS011;11648;49.306;6.934;2023-08-21T02:47:05;5.70;;;2.80;;
22963;SDS011;11648;49.306;6.934;2023-08-21T02:49:32;4.47;;;2.60;;
22963;SDS011;11648;49.306;6.934;2023-08-21T02:51:58;5.07;;;2.80;;
22963;SDS011;11648;49.306;6.934;2023-08-21T02:54:25;5.10;;;2.60;;
22963;SDS011;11648;49.306;6.934;2023-08-21T02:56:52;4.67;;;3.03;;
22963;SDS011;11648;49.306;6.934;2023-08-21T02:59:19;5.27;;;2.70;;
22963;SDS011;11648;49.306;6.934;2023-08-21T03:01:45;3.73;;;2.70;;
22963;SDS011;11648;49.306;6.934;2023-08-21T03:04:12;4.90;;;2.70;;
22963;SDS011;11648;49.306;6.934;2023-08-21T03:06:39;6.37;;;2.90;;
22963;SDS011;11648;49.306;6.934;2023-08-21T03:09:06;5.00;;;3.00;;
22963;SDS011;11648;49.306;6.934;2023-08-21T03:11:32;5.13;;;3.20;;
22963;SDS011;11648;49.306;6.934;2023-08-21T03:13:59;8.37;;;3.10;;
22963;SDS011;11648;49.306;6.934;2023-08-21T03:16:26;7.70;;;3.27;;
22963;SDS011;11648;49.306;6.934;2023-08-21T03:18:54;4.93;;;3.20;;
22963;SDS011;11648;49.306;6.934;2023-08-21T03:21:24;4.37;;;3.37;;
22963;SDS011;11648;49.306;6.934;2023-08-21T03:23:56;5.90;;;2.90;;
22963;SDS011;11648;49.306;6.934;2023-08-21T03:26:29;4.93;;;3.13;;
22963;SDS011;11648;49.306;6.934;2023-08-21T03:28:56;9.37;;;3.23;;
22963;SDS011;11648;49.306;6.934;2023-08-21T03:31:23;5.47;;;3.17;;
22963;SDS011;11648;49.306;6.934;2023-08-21T03:33:50;7.30;;;3.60;;
22963;SDS011;11648;49.306;6.934;2023-08-21T03:36:19;4.10;;;3.03;;
22963;SDS011;11648;49.306;6.934;2023-08-21T03:38:46;4.70;;;2.87;;
22963;SDS011;11648;49.306;6.934;2023-08-21T03:41:13;4.20;;;2.97;;
22963;SDS011;11648;49.306;6.934;2023-08-21T03:43:40;3.83;;;3.00;;
22963;SDS011;11648;49.306;6.934;2023-08-21T03:46:07;4.50;;;3.23;;
22963;SDS011;11648;49.306;6.934;2023-08-21T03:48:33;4.23;;;3.30;;
22963;SDS011;11648;49.306;6.934;2023-08-21T03:51:01;6.33;;;3.57;;
22963;SDS011;11648;49.306;6.934;2023-08-21T03:53:29;5.43;;;3.27;;
22963;SDS011;11648;49.306;6.934;2023-08-21T03:55:56;4.97;;;3.10;;
22963;SDS011;11648;49.306;6.934;2023-08-21T03:58:22;4.67;;;3.17;;
22963;SDS011;11648;49.306;6.934;2023-08-21T04:00:54;5.83;;;2.90;;
22963;SDS011;11648;49.306;6.934;2023-08-21T04:03:21;5.17;;;3.40;;
22963;SDS011;11648;49.306;6.934;2023-08-21T04:05:48;6.10;;;3.00;;
22963;SDS011;11648;49.306;6.934;2023-08-21T04:08:15;4.93;;;3.30;;
22963;SDS011;11648;49.306;6.934;2023-08-21T04:10:42;4.43;;;3.20;;
22963;SDS011;11648;49.306;6.934;2023-08-21T04:13:09;5.00;;;3.37;;
22963;SDS011;11648;49.306;6.934;2023-08-21T04:15:35;7.00;;;3.27;;
22963;SDS011;11648;49.306;6.934;2023-08-21T04:18:03;5.20;;;3.50;;
22963;SDS011;11648;49.306;6.934;2023-08-21T04:20:31;5.07;;;3.30;;
22963;SDS011;11648;49.306;6.934;2023-08-21T04:22:57;5.73;;;3.37;;
22963;SDS011;11648;49.306;6.934;2023-08-21T04:25:24;5.47;;;3.30;;
22963;SDS011;11648;49.306;6.934;2023-08-21T04:27:51;5.50;;;3.53;;
22963;SDS011;11648;49.306;6.934;2023-08-21T04:30:18;6.53;;;3.00;;
22963;SDS011;11648;49.306;6.934;2023-08-21T04:32:45;4.47;;;3.13;;
22963;SDS011;11648;49.306;6.934;2023-08-21T04:35:11;5.43;;;3.20;;
22963;SDS011;11648;49.306;6.934;2023-08-21T04:37:43;4.37;;;3.00;;
22963;SDS011;11648;49.306;6.934;2023-08-21T04:40:13;5.37;;;3.27;;
22963;SDS011;11648;49.306;6.934;2023-08-21T04:42:40;5.87;;;3.87;;
22963;SDS011;11648;49.306;6.934;2023-08-21T04:45:07;5.80;;;3.80;;
22963;SDS011;11648;49.306;6.934;2023-08-21T04:47:36;5.97;;;3.40;;
22963;SDS011;11648;49.306;6.934;2023-08-21T04:50:03;7.23;;;3.60;;
22963;SDS011;11648;49.306;6.934;2023-08-21T04:52:30;6.83;;;3.33;;
22963;SDS011;11648;49.306;6.934;2023-08-21T04:54:58;5.37;;;3.50;;
22963;SDS011;11648;49.306;6.934;2023-08-21T04:57:27;9.77;;;3.60;;
22963;SDS011;11648;49.306;6.934;2023-08-21T04:59:53;6.30;;;3.47;;
22963;SDS011;11648;49.306;6.934;2023-08-21T05:02:21;4.70;;;3.57;;
22963;SDS011;11648;49.306;6.934;2023-08-21T05:04:49;4.87;;;3.50;;
22963;SDS011;11648;49.306;6.934;2023-08-21T05:07:16;5.37;;;3.17;;
22963;SDS011;11648;49.306;6.934;2023-08-21T05:09:43;7.50;;;3.70;;
22963;SDS011;11648;49.306;6.934;2023-08-21T05:12:11;8.07;;;3.70;;
22963;SDS011;11648;49.306;6.934;2023-08-21T05:14:38;4.77;;;3.37;;
22963;SDS011;11648;49.306;6.934;2023-08-21T05:17:05;4.10;;;3.07;;
22963;SDS011;11648;49.306;6.934;2023-08-21T05:19:32;3.90;;;3.47;;
22963;SDS011;11648;49.306;6.934;2023-08-21T05:21:59;6.40;;;3.80;;
22963;SDS011;11648;49.306;6.934;2023-08-21T05:24:30;6.13;;;3.40;;
22963;SDS011;11648;49.306;6.934;2023-08-21T05:27:01;6.23;;;3.50;;
22963;SDS011;11648;49.306;6.934;2023-08-21T05:29:28;6.80;;;3.50;;
22963;SDS011;11648;49.306;6.934;2023-08-21T05:31:55;4.33;;;3.60;;
22963;SDS011;11648;49.306;6.934;2023-08-21T05:34:22;6.40;;;3.87;;
22963;SDS011;11648;49.306;6.934;2023-08-21T05:36:50;5.70;;;3.73;;
22963;SDS011;11648;49.306;6.934;2023-08-21T05:39:17;5.10;;;3.63;;
22963;SDS011;11648;49.306;6.934;2023-08-21T05:41:46;4.63;;;3.30;;
22963;SDS011;11648;49.306;6.934;2023-08-21T05:44:13;5.87;;;3.47;;
22963;SDS011;11648;49.306;6.934;2023-08-21T05:46:40;6.87;;;3.43;;
22963;SDS011;11648;49.306;6.934;2023-08-21T05:49:07;5.43;;;3.03;;
22963;SDS011;11648;49.306;6.934;2023-08-21T05:51:34;4.73;;;3.17;;
22963;SDS011;11648;49.306;6.934;2023-08-21T05:54:01;5.57;;;3.37;;
22963;SDS011;11648;49.306;6.934;2023-08-21T05:56:28;7.20;;;3.33;;
22963;SDS011;11648;49.306;6.934;2023-08-21T05:58:55;5.93;;;3.37;;
22963;SDS011;11648;49.306;6.934;2023-08-21T06:01:24;4.40;;;2.90;;
22963;SDS011;11648;49.306;6.934;2023-08-21T06:03:51;6.07;;;3.20;;
22963;SDS011;11648;49.306;6.934;2023-08-21T06:06:31;7.07;;;3.20;;
22963;SDS011;11648;49.306;6.934;2023-08-21T06:08:58;5.07;;;3.17;;
22963;SDS011;11648;49.306;6.934;2023-08-21T06:11:25;6.55;;;3.05;;
22963;SDS011;11648;49.306;6.934;2023-08-21T06:13:52;6.43;;;3.10;;
22963;SDS011;11648;49.306;6.934;2023-08-21T06:16:19;6.00;;;3.30;;
22963;SDS011;11648;49.306;6.934;2023-08-21T06:18:47;6.75;;;2.88;;
22963;SDS011;11648;49.306;6.934;2023-08-21T06:21:14;7.30;;;3.28;;
22963;SDS011;11648;49.306;6.934;2023-08-21T06:23:41;4.40;;;2.90;;
22963;SDS011;11648;49.306;6.934;2023-08-21T06:26:07;7.45;;;3.08;;
22963;SDS011;11648;49.306;6.934;2023-08-21T06:28:35;7.40;;;3.42;;
22963;SDS011;11648;49.306;6.934;2023-08-21T06:31:01;5.88;;;3.22;;
22963;SDS011;11648;49.306;6.934;2023-08-21T06:33:34;4.40;;;3.00;;
22963;SDS011;11648;49.306;6.934;2023-08-21T06:36:01;6.35;;;3.33;;
22963;SDS011;11648;49.306;6.934;2023-08-21T06:38:27;5.72;;;3.15;;
22963;SDS011;11648;49.306;6.934;2023-08-21T06:40:54;6.70;;;3.38;;
22963;SDS011;11648;49.306;6.934;2023-08-21T06:43:21;5.28;;;3.00;;
22963;SDS011;11648;49.306;6.934;2023-08-21T06:45:49;4.90;;;3.28;;
22963;SDS011;11648;49.306;6.934;2023-08-21T06:48:17;5.10;;;3.08;;
22963;SDS011;11648;49.306;6.934;2023-08-21T06:50:44;8.65;;;3.35;;
22963;SDS011;11648;49.306;6.934;2023-08-21T06:53:11;5.20;;;2.90;;
22963;SDS011;11648;49.306;6.934;2023-08-21T06:55:38;6.20;;;3.10;;
22963;SDS011;11648;49.306;6.934;2023-08-21T06:58:05;4.43;;;3.00;;
22963;SDS011;11648;49.306;6.934;2023-08-21T07:00:31;4.85;;;3.00;;
22963;SDS011;11648;49.306;6.934;2023-08-21T07:02:58;5.95;;;3.08;;
22963;SDS011;11648;49.306;6.934;2023-08-21T07:05:25;4.85;;;3.10;;
22963;SDS011;11648;49.306;6.934;2023-08-21T07:07:52;4.47;;;3.00;;
22963;SDS011;11648;49.306;6.934;2023-08-21T07:10:19;5.95;;;3.22;;
22963;SDS011;11648;49.306;6.934;2023-08-21T07:12:46;4.93;;;2.80;;
22963;SDS011;11648;49.306;6.934;2023-08-21T07:15:13;4.93;;;3.20;;
22963;SDS011;11648;49.306;6.934;2023-08-21T07:17:40;5.35;;;3.10;;
22963;SDS011;11648;49.306;6.934;2023-08-21T07:20:06;4.88;;;2.80;;
22963;SDS011;11648;49.306;6.934;2023-08-21T07:22:34;6.10;;;3.53;;
22963;SDS011;11648;49.306;6.934;2023-08-21T07:25:01;6.05;;;3.17;;
22963;SDS011;11648;49.306;6.934;2023-08-21T07:27:30;6.03;;;3.25;;
22963;SDS011;11648;49.306;6.934;2023-08-21T07:29:58;5.18;;;3.40;;
22963;SDS011;11648;49.306;6.934;2023-08-21T07:32:24;4.55;;;3.65;;
22963;SDS011;11648;49.306;6.934;2023-08-21T07:34:52;7.15;;;4.03;;
22963;SDS011;11648;49.306;6.934;2023-08-21T07:37:20;5.03;;;3.63;;
22963;SDS011;11648;49.306;6.934;2023-08-21T07:39:47;7.38;;;3.80;;
22963;SDS011;11648;49.306;6.934;2023-08-21T07:42:13;5.38;;;3.80;;
22963;SDS011;11648;49.306;6.934;2023-08-21T07:44:40;5.32;;;3.70;;
22963;SDS011;11648;49.306;6.934;2023-08-21T07:47:07;7.43;;;4.15;;
22963;SDS011;11648;49.306;6.934;2023-08-21T07:49:34;5.25;;;3.70;;
22963;SDS011;11648;49.306;6.934;2023-08-21T07:52:02;4.80;;;3.60;;
22963;SDS011;11648;49.306;6.934;2023-08-21T07:54:30;5.30;;;3.78;;
22963;SDS011;11648;49.306;6.934;2023-08-21T07:56:56;5.55;;;3.72;;
22963;SDS011;11648;49.306;6.934;2023-08-21T07:59:23;6.60;;;4.00;;
22963;SDS011;11648;49.306;6.934;2023-08-21T08:01:52;7.63;;;3.63;;
22963;SDS011;11648;49.306;6.934;2023-08-21T08:04:19;5.80;;;3.53;;
22963;SDS011;11648;49.306;6.934;2023-08-21T08:06:47;6.03;;;3.65;;
22963;SDS011;11648;49.306;6.934;2023-08-21T08:09:14;5.95;;;3.53;;
22963;SDS011;11648;49.306;6.934;2023-08-21T08:11:41;5.18;;;3.65;;
22963;SDS011;11648;49.306;6.934;2023-08-21T08:14:07;6.35;;;3.55;;
22963;SDS011;11648;49.306;6.934;2023-08-21T08:16:34;6.85;;;3.47;;
22963;SDS011;11648;49.306;6.934;2023-08-21T08:19:01;4.88;;;3.47;;
22963;SDS011;11648;49.306;6.934;2023-08-21T08:21:27;5.78;;;3.53;;
22963;SDS011;11648;49.306;6.934;2023-08-21T08:23:55;4.10;;;3.10;;
22963;SDS011;11648;49.306;6.934;2023-08-21T08:26:22;4.47;;;2.90;;
22963;SDS011;11648;49.306;6.934;2023-08-21T08:28:49;3.90;;;3.13;;
22963;SDS011;11648;49.306;6.934;2023-08-21T08:31:16;5.40;;;3.33;;
22963;SDS011;11648;49.306;6.934;2023-08-21T08:33:44;6.43;;;3.35;;
22963;SDS011;11648;49.306;6.934;2023-08-21T08:36:11;5.25;;;3.03;;
22963;SDS011;11648;49.306;6.934;2023-08-21T08:38:38;5.75;;;3.47;;
22963;SDS011;11648;49.306;6.934;2023-08-21T08:41:10;3.92;;;3.03;;
22963;SDS011;11648;49.306;6.934;2023-08-21T08:43:40;5.68;;;3.00;;
22963;SDS011;11648;49.306;6.934;2023-08-21T08:46:08;4.95;;;2.92;;
22963;SDS011;11648;49.306;6.934;2023-08-21T08:48:36;4.72;;;2.85;;
22963;SDS011;11648;49.306;6.934;2023-08-21T08:51:04;4.10;;;2.83;;
22963;SDS011;11648;49.306;6.934;2023-08-21T08:53:30;7.20;;;2.85;;
22963;SDS011;11648;49.306;6.934;2023-08-21T08:55:57;5.90;;;2.70;;
22963;SDS011;11648;49.306;6.934;2023-08-21T08:58:24;5.07;;;2.40;;
22963;SDS011;11648;49.306;6.934;2023-08-21T09:00:52;3.33;;;2.33;;
22963;SDS011;11648;49.306;6.934;2023-08-21T09:03:19;3.53;;;2.83;;
22963;SDS011;11648;49.306;6.934;2023-08-21T09:05:46;3.92;;;2.60;;
22963;SDS011;11648;49.306;6.934;2023-08-21T09:08:14;4.78;;;2.40;;
22963;SDS011;11648;49.306;6.934;2023-08-21T09:10:41;5.50;;;2.70;;
22963;SDS011;11648;49.306;6.934;2023-08-21T09:13:12;4.97;;;2.63;;
22963;SDS011;11648;49.306;6.934;2023-08-21T09:15:53;4.25;;;1.92;;
22963;SDS011;11648;49.306;6.934;2023-08-21T09:18:21;4.05;;;2.10;;
22963;SDS011;11648;49.306;6.934;2023-08-21T09:20:48;3.33;;;2.15;;
22963;SDS011;11648;49.306;6.934;2023-08-21T09:23:16;2.28;;;2.00;;
22963;SDS011;11648;49.306;6.934;2023-08-21T09:25:45;4.10;;;1.92;;
22963;SDS011;11648;49.306;6.934;2023-08-21T09:28:14;4.55;;;2.47;;
22963;SDS011;11648;49.306;6.934;2023-08-21T09:30:47;3.97;;;2.05;;
22963;SDS011;11648;49.306;6.934;2023-08-21T09:33:22;3.10;;;2.10;;
22963;SDS011;11648;49.306;6.934;2023-08-21T09:35:53;3.92;;;2.17;;
22963;SDS011;11648;49.306;6.934;2023-08-21T09:38:21;3.75;;;2.10;;
22963;SDS011;11648;49.306;6.934;2023-08-21T09:40:54;3.20;;;2.00;;
22963;SDS011;11648;49.306;6.934;2023-08-21T09:43:22;4.97;;;2.33;;
22963;SDS011;11648;49.306;6.934;2023-08-21T09:45:51;3.08;;;2.17;;
22963;SDS011;11648;49.306;6.934;2023-08-21T09:48:21;3.58;;;2.42;;
22963;SDS011;11648;49.306;6.934;2023-08-21T09:50:50;2.97;;;2.30;;
22963;SDS011;11648;49.306;6.934;2023-08-21T09:53:19;2.70;;;2.35;;
22963;SDS011;11648;49.306;6.934;2023-08-21T09:56:00;3.53;;;2.20;;
22963;SDS011;11648;49.306;6.934;2023-08-21T09:58:29;3.55;;;1.90;;
22963;SDS011;11648;49.306;6.934;2023-08-21T10:00:57;2.50;;;1.90;;
22963;SDS011;11648;49.306;6.934;2023-08-21T10:03:26;3.95;;;2.20;;
22963;SDS011;11648;49.306;6.934;2023-08-21T10:05:54;3.22;;;2.30;;
22963;SDS011;11648;49.306;6.934;2023-08-21T10:08:23;4.18;;;2.40;;
22963;SDS011;11648;49.306;6.934;2023-08-21T10:10:52;3.08;;;2.47;;
22963;SDS011;11648;49.306;6.934;2023-08-21T10:13:19;4.75;;;2.88;;
22963;SDS011;11648;49.306;6.934;2023-08-21T10:15:46;3.80;;;2.80;;
22963;SDS011;11648;49.306;6.934;2023-08-21T10:18:18;4.35;;;2.97;;
22963;SDS011;11648;49.306;6.934;2023-08-21T10:20:45;3.78;;;2.95;;
22963;SDS011;11648;49.306;6.934;2023-08-21T10:23:23;3.25;;;2.88;;
22963;SDS011;11648;49.306;6.934;2023-08-21T10:25:54;2.78;;;2.50;;
22963;SDS011;11648;49.306;6.934;2023-08-21T10:33:54;3.03;;;2.30;;
22963;SDS011;11648;49.306;6.934;2023-08-21T10:36:37;2.90;;;2.25;;
22963;SDS011;11648;49.306;6.934;2023-08-21T10:39:14;5.38;;;2.65;;
22963;SDS011;11648;49.306;6.934;2023-08-21T10:41:41;3.47;;;2.55;;
22963;SDS011;11648;49.306;6.934;2023-08-21T10:44:33;3.33;;;2.00;;
22963;SDS011;11648;49.306;6.934;2023-08-21T10:49:39;2.30;;;2.10;;
22963;SDS011;11648;49.306;6.934;2023-08-21T10:52:07;2.53;;;2.33;;
22963;SDS011;11648;49.306;6.934;2023-08-21T10:54:45;3.60;;;2.45;;
22963;SDS011;11648;49.306;6.934;2023-08-21T10:57:13;2.60;;;2.00;;
22963;SDS011;11648;49.306;6.934;2023-08-21T10:59:50;3.08;;;2.25;;
22963;SDS011;11648;49.306;6.934;2023-08-21T11:02:17;2.72;;;2.40;;
22963;SDS011;11648;49.306;6.934;2023-08-21T11:04:45;3.00;;;2.15;;
22963;SDS011;11648;49.306;6.934;2023-08-21T11:07:12;4.55;;;2.30;;
22963;SDS011;11648;49.306;6.934;2023-08-21T11:09:39;2.28;;;2.00;;
22963;SDS011;11648;49.306;6.934;2023-08-21T11:12:10;3.05;;;2.17;;
22963;SDS011;11648;49.306;6.934;2023-08-21T11:14:41;3.00;;;2.15;;
22963;SDS011;11648;49.306;6.934;2023-08-21T11:17:08;3.13;;;2.50;;
22963;SDS011;11648;49.306;6.934;2023-08-21T11:19:36;2.65;;;2.45;;
22963;SDS011;11648;49.306;6.934;2023-08-21T11:22:04;4.30;;;2.40;;
22963;SDS011;11648;49.306;6.934;2023-08-21T11:24:45;4.03;;;2.40;;
22963;SDS011;11648;49.306;6.934;2023-08-21T11:27:14;2.85;;;2.30;;
22963;SDS011;11648;49.306;6.934;2023-08-21T11:29:47;4.05;;;2.90;;
22963;SDS011;11648;49.306;6.934;2023-08-21T11:32:16;3.70;;;2.47;;
22963;SDS011;11648;49.306;6.934;2023-08-21T11:34:54;6.78;;;2.63;;
22963;SDS011;11648;49.306;6.934;2023-08-21T11:37:22;2.60;;;2.20;;
22963;SDS011;11648;49.306;6.934;2023-08-21T11:39:51;4.30;;;2.60;;
22963;SDS011;11648;49.306;6.934;2023-08-21T11:42:20;2.90;;;2.28;;
22963;SDS011;11648;49.306;6.934;2023-08-21T11:44:49;4.18;;;2.50;;
22963;SDS011;11648;49.306;6.934;2023-08-21T11:47:18;3.08;;;2.45;;
22963;SDS011;11648;49.306;6.934;2023-08-21T11:49:48;3.15;;;2.33;;
22963;SDS011;11648;49.306;6.934;2023-08-21T11:52:19;3.30;;;2.45;;
22963;SDS011;11648;49.306;6.934;2023-08-21T11:54:50;3.33;;;2.50;;
22963;SDS011;11648;49.306;6.934;2023-08-21T11:57:18;3.20;;;2.50;;
22963;SDS011;11648;49.306;6.934;2023-08-21T11:59:49;3.85;;;2.50;;
22963;SDS011;11648;49.306;6.934;2023-08-21T12:02:23;4.03;;;2.58;;
22963;SDS011;11648;49.306;6.934;2023-08-21T12:05:01;3.25;;;2.60;;
22963;SDS011;11648;49.306;6.934;2023-08-21T12:07:34;6.60;;;2.80;;
22963;SDS011;11648;49.306;6.934;2023-08-21T12:10:01;4.63;;;2.50;;
22963;SDS011;11648;49.306;6.934;2023-08-21T12:12:28;4.15;;;2.38;;
22963;SDS011;11648;49.306;6.934;2023-08-21T12:14:55;5.80;;;2.30;;
22963;SDS011;11648;49.306;6.934;2023-08-21T12:17:22;3.83;;;2.38;;
22963;SDS011;11648;49.306;6.934;2023-08-21T12:19:48;3.55;;;2.50;;
22963;SDS011;11648;49.306;6.934;2023-08-21T12:22:15;3.20;;;2.28;;
22963;SDS011;11648;49.306;6.934;2023-08-21T12:24:42;3.33;;;2.30;;
22963;SDS011;11648;49.306;6.934;2023-08-21T12:27:09;5.68;;;2.10;;
22963;SDS011;11648;49.306;6.934;2023-08-21T12:29:35;5.38;;;2.20;;
22963;SDS011;11648;49.306;6.934;2023-08-21T12:32:02;4.95;;;2.05;;
22963;SDS011;11648;49.306;6.934;2023-08-21T12:34:29;5.97;;;2.03;;
22963;SDS011;11648;49.306;6.934;2023-08-21T12:36:56;4.07;;;2.10;;
22963;SDS011;11648;49.306;6.934;2023-08-21T12:39:23;3.97;;;1.95;;
22963;SDS011;11648;49.306;6.934;2023-08-21T12:41:50;3.25;;;2.00;;
22963;SDS011;11648;49.306;6.934;2023-08-21T12:44:17;4.43;;;1.80;;
22963;SDS011;11648;49.306;6.934;2023-08-21T12:46:43;4.13;;;1.67;;
22963;SDS011;11648;49.306;6.934;2023-08-21T12:49:11;2.30;;;1.30;;
22963;SDS011;11648;49.306;6.934;2023-08-21T12:51:38;2.97;;;1.60;;
22963;SDS011;11648;49.306;6.934;2023-08-21T12:54:05;3.08;;;1.50;;
22963;SDS011;11648;49.306;6.934;2023-08-21T12:56:32;3.08;;;1.35;;
22963;SDS011;11648;49.306;6.934;2023-08-21T12:58:59;4.20;;;1.73;;
22963;SDS011;11648;49.306;6.934;2023-08-21T13:01:27;2.65;;;1.60;;
22963;SDS011;11648;49.306;6.934;2023-08-21T13:03:53;3.17;;;1.50;;
22963;SDS011;11648;49.306;6.934;2023-08-21T13:06:20;3.38;;;1.60;;
22963;SDS011;11648;49.306;6.934;2023-08-21T13:08:47;2.45;;;1.30;;
22963;SDS011;11648;49.306;6.934;2023-08-21T13:11:14;2.60;;;1.52;;
22963;SDS011;11648;49.306;6.934;2023-08-21T13:13:41;3.40;;;1.70;;
22963;SDS011;11648;49.306;6.934;2023-08-21T13:16:08;2.92;;;1.55;;
22963;SDS011;11648;49.306;6.934;2023-08-21T13:18:35;4.00;;;1.52;;
22963;SDS011;11648;49.306;6.934;2023-08-21T13:21:02;3.47;;;1.50;;
22963;SDS011;11648;49.306;6.934;2023-08-21T13:23:29;3.97;;;1.55;;
22963;SDS011;11648;49.306;6.934;2023-08-21T13:25:57;2.58;;;1.60;;
22963;SDS011;11648;49.306;6.934;2023-08-21T13:28:24;3.40;;;1.48;;
22963;SDS011;11648;49.306;6.934;2023-08-21T13:30:51;4.32;;;1.80;;
22963;SDS011;11648;49.306;6.934;2023-08-21T13:33:19;2.50;;;1.60;;
22963;SDS011;11648;49.306;6.934;2023-08-21T13:35:46;2.85;;;1.50;;
22963;SDS011;11648;49.306;6.934;2023-08-21T13:38:13;3.05;;;1.80;;
22963;SDS011;11648;49.306;6.934;2023-08-21T13:40:42;2.13;;;1.30;;
22963;SDS011;11648;49.306;6.934;2023-08-21T13:43:09;3.50;;;1.60;;
22963;SDS011;11648;49.306;6.934;2023-08-21T13:45:37;2.83;;;1.80;;
22963;SDS011;11648;49.306;6.934;2023-08-21T13:48:06;2.78;;;1.67;;
22963;SDS011;11648;49.306;6.934;2023-08-21T13:50:34;3.22;;;1.70;;
22963;SDS011;11648;49.306;6.934;2023-08-21T13:53:01;1.95;;;1.50;;
22963;SDS011;11648;49.306;6.934;2023-08-21T13:55:28;3.47;;;1.67;;
22963;SDS011;11648;49.306;6.934;2023-08-21T13:57:55;4.22;;;1.60;;
22963;SDS011;11648;49.306;6.934;2023-08-21T14:00:21;2.60;;;1.60;;
22963;SDS011;11648;49.306;6.934;2023-08-21T14:02:49;3.20;;;1.70;;
22963;SDS011;11648;49.306;6.934;2023-08-21T14:05:16;2.35;;;1.63;;
22963;SDS011;11648;49.306;6.934;2023-08-21T14:07:44;4.85;;;1.60;;
22963;SDS011;11648;49.306;6.934;2023-08-21T14:10:11;4.35;;;1.45;;
22963;SDS011;11648;49.306;6.934;2023-08-21T14:12:40;3.13;;;1.60;;
22963;SDS011;11648;49.306;6.934;2023-08-21T14:15:08;3.58;;;1.45;;
22963;SDS011;11648;49.306;6.934;2023-08-21T14:17:35;4.22;;;1.60;;
22963;SDS011;11648;49.306;6.934;2023-08-21T14:20:03;4.15;;;1.50;;
22963;SDS011;11648;49.306;6.934;2023-08-21T14:22:30;3.05;;;1.70;;
22963;SDS011;11648;49.306;6.934;2023-08-21T14:24:57;3.00;;;1.73;;
22963;SDS011;11648;49.306;6.934;2023-08-21T14:27:24;3.70;;;1.70;;
22963;SDS011;11648;49.306;6.934;2023-08-21T14:29:50;3.55;;;1.70;;
22963;SDS011;11648;49.306;6.934;2023-08-21T14:32:17;2.90;;;1.60;;
22963;SDS011;11648;49.306;6.934;2023-08-21T14:34:44;3.25;;;1.65;;
22963;SDS011;11648;49.306;6.934;2023-08-21T14:37:12;2.58;;;1.30;;
22963;SDS011;11648;49.306;6.934;2023-08-21T14:39:41;3.72;;;1.80;;
22963;SDS011;11648;49.306;6.934;2023-08-21T14:42:12;4.35;;;1.80;;
22963;SDS011;11648;49.306;6.934;2023-08-21T14:44:39;3.83;;;1.40;;
22963;SDS011;11648;49.306;6.934;2023-08-21T14:47:06;3.08;;;1.58;;
22963;SDS011;11648;49.306;6.934;2023-08-21T14:49:34;3.13;;;1.60;;
22963;SDS011;11648;49.306;6.934;2023-08-21T14:52:01;3.65;;;1.92;;
22963;SDS011;11648;49.306;6.934;2023-08-21T14:54:27;3.05;;;1.52;;
22963;SDS011;11648;49.306;6.934;2023-08-21T14:56:54;5.13;;;1.88;;
22963;SDS011;11648;49.306;6.934;2023-08-21T14:59:21;3.92;;;1.88;;
22963;SDS011;11648;49.306;6.934;2023-08-21T15:01:48;3.63;;;1.75;;
22963;SDS011;11648;49.306;6.934;2023-08-21T15:04:15;4.50;;;1.88;;